^^
Station Historical Data
Daily Summary for March 1, 2018 Units:  Both    English   Metric
« Previous Day
Next Day »
Daily Weekly Monthly Yearly Custom
  High: Low: Average:
Temperature: TemperatureF °F /  -17.8 °C 58.8 °F /  14.9 °C 76 °F /  24.4 °C
Dew Point: DewpointF °F /  -17.8 °C 40.1 °F /  4.5 °C 46.1 °F /  7.8 °C
Humidity: Humidity% 18% 38%
Wind Speed: WindSpeedMPHmph /  0km/h - 2mph /  3.2km/h
Wind Gust: WindSpeedGustMPHmph /  0km/h - -
Wind- - SE
Pressure: PressureIn in /  0 hPa 29.60 in /  1002.3 hPa -
Precipitation: 0.00 in /  0 mm    
Historical Graphs
 
 
Tabular Data for March 1, 2018
Time Temperature Dew Point Pressure Wind Wind Speed Wind Gust Humidity Rainfall Rate (Hourly) solar Conditions
TemperatureF °F /  -17.8 °C DewpointF °F /  -17.8 °C PressureInin /  0hPa Calm     Humidity% HourlyPrecipInin /  0mm SolarRadiationWatts/m^2 W/m2 Conditions
00:00 68.7 °F /  20.4 °C 44.8 °F /  7.1 °C 29.76in /  1007.7hPa Calm   3.0mph /  4.8km/h 42% 0.00in /  0mm 0.0 W/m2
00:05 68.7 °F /  20.4 °C 44.8 °F /  7.1 °C 29.76in /  1007.7hPa Calm   2.0mph /  3.2km/h 42% 0.00in /  0mm 0.0 W/m2
00:10 68.7 °F /  20.4 °C 45.3 °F /  7.4 °C 29.76in /  1007.7hPa Calm   3.0mph /  4.8km/h 43% 0.00in /  0mm 0.0 W/m2
00:15 68.7 °F /  20.4 °C 45.3 °F /  7.4 °C 29.76in /  1007.7hPa Calm     43% 0.00in /  0mm 0.0 W/m2
00:20 68.5 °F /  20.3 °C 45.1 °F /  7.3 °C 29.76in /  1007.7hPa Calm     43% 0.00in /  0mm 0.0 W/m2
00:25 68.4 °F /  20.2 °C 45.7 °F /  7.6 °C 29.76in /  1007.7hPa Calm     44% 0.00in /  0mm 0.0 W/m2
00:30 68.2 °F /  20.1 °C 45.5 °F /  7.5 °C 29.76in /  1007.7hPa Calm     44% 0.00in /  0mm 0.0 W/m2
00:36 67.8 °F /  19.9 °C 45.7 °F /  7.6 °C 29.75in /  1007.3hPa Calm     45% 0.00in /  0mm 0.0 W/m2
00:41 67.6 °F /  19.8 °C 46.0 °F /  7.8 °C 29.76in /  1007.7hPa Calm     46% 0.00in /  0mm 0.0 W/m2
00:46 67.5 °F /  19.7 °C 45.3 °F /  7.4 °C 29.76in /  1007.7hPa Calm   3.0mph /  4.8km/h 45% 0.00in /  0mm 0.0 W/m2
00:51 67.3 °F /  19.6 °C 44.6 °F /  7 °C 29.76in /  1007.7hPa Calm   5.0mph /  8km/h 44% 0.00in /  0mm 0.0 W/m2
00:56 67.3 °F /  19.6 °C 45.1 °F /  7.3 °C 29.76in /  1007.7hPa Calm   2.0mph /  3.2km/h 45% 0.00in /  0mm 0.0 W/m2
01:01 67.3 °F /  19.6 °C 44.6 °F /  7 °C 29.76in /  1007.7hPa Calm   3.0mph /  4.8km/h 44% 0.00in /  0mm 0.0 W/m2
01:06 67.5 °F /  19.7 °C 44.8 °F /  7.1 °C 29.76in /  1007.7hPa Calm   1.0mph /  1.6km/h 44% 0.00in /  0mm 0.0 W/m2
01:11 67.6 °F /  19.8 °C 45.0 °F /  7.2 °C 29.76in /  1007.7hPa Calm   2.0mph /  3.2km/h 44% 0.00in /  0mm 0.0 W/m2
01:16 67.6 °F /  19.8 °C 44.4 °F /  6.9 °C 29.75in /  1007.3hPa SSW 0.9mph /  1.4km/h 4.0mph /  6.4km/h 43% 0.00in /  0mm 0.0 W/m2
01:22 67.8 °F /  19.9 °C 44.4 °F /  6.9 °C 29.75in /  1007.3hPa Calm   1.0mph /  1.6km/h 43% 0.00in /  0mm 0.0 W/m2
01:27 68.0 °F /  20 °C 44.1 °F /  6.7 °C 29.75in /  1007.3hPa SSW 0.9mph /  1.4km/h 4.0mph /  6.4km/h 42% 0.00in /  0mm 0.0 W/m2
01:32 68.4 °F /  20.2 °C 43.7 °F /  6.5 °C 29.75in /  1007.3hPa Calm   2.0mph /  3.2km/h 41% 0.00in /  0mm 0.0 W/m2
01:37 68.4 °F /  20.2 °C 44.4 °F /  6.9 °C 29.75in /  1007.3hPa Calm   2.0mph /  3.2km/h 42% 0.00in /  0mm 0.0 W/m2
01:42 68.4 °F /  20.2 °C 44.4 °F /  6.9 °C 29.75in /  1007.3hPa Calm   3.0mph /  4.8km/h 42% 0.00in /  0mm 0.0 W/m2
01:47 68.4 °F /  20.2 °C 44.4 °F /  6.9 °C 29.75in /  1007.3hPa Calm     42% 0.00in /  0mm 0.0 W/m2
01:52 68.0 °F /  20 °C 45.3 °F /  7.4 °C 29.75in /  1007.3hPa Calm     44% 0.00in /  0mm 0.0 W/m2
01:57 67.6 °F /  19.8 °C 46.0 °F /  7.8 °C 29.75in /  1007.3hPa Calm     46% 0.00in /  0mm 0.0 W/m2
02:02 67.5 °F /  19.7 °C 46.0 °F /  7.8 °C 29.74in /  1007hPa Calm     46% 0.00in /  0mm 0.0 W/m2
02:08 66.9 °F /  19.4 °C 46.6 °F /  8.1 °C 29.75in /  1007.3hPa Calm   1.0mph /  1.6km/h 48% 0.00in /  0mm 0.0 W/m2
02:13 66.6 °F /  19.2 °C 46.2 °F /  7.9 °C 29.75in /  1007.3hPa Calm     48% 0.00in /  0mm 0.0 W/m2
02:18 66.4 °F /  19.1 °C 46.0 °F /  7.8 °C 29.74in /  1007hPa Calm   1.0mph /  1.6km/h 48% 0.00in /  0mm 0.0 W/m2
02:23 66.0 °F /  18.9 °C 44.6 °F /  7 °C 29.74in /  1007hPa South 2.0mph /  3.2km/h 2.0mph /  3.2km/h 46% 0.00in /  0mm 0.0 W/m2
02:28 66.4 °F /  19.1 °C 44.4 °F /  6.9 °C 29.74in /  1007hPa Calm   1.0mph /  1.6km/h 45% 0.00in /  0mm 0.0 W/m2
02:33 66.7 °F /  19.3 °C 44.1 °F /  6.7 °C 29.74in /  1007hPa SW 0.9mph /  1.4km/h 3.0mph /  4.8km/h 44% 0.00in /  0mm 0.0 W/m2
02:38 67.3 °F /  19.6 °C 44.1 °F /  6.7 °C 29.74in /  1007hPa SE 2.9mph /  4.7km/h 4.0mph /  6.4km/h 43% 0.00in /  0mm 0.0 W/m2
02:43 67.6 °F /  19.8 °C 44.4 °F /  6.9 °C 29.74in /  1007hPa SSW 2.0mph /  3.2km/h 3.0mph /  4.8km/h 43% 0.00in /  0mm 0.0 W/m2
02:48 68.2 °F /  20.1 °C 44.2 °F /  6.8 °C 29.74in /  1007hPa Calm   6.0mph /  9.7km/h 42% 0.00in /  0mm 0.0 W/m2
02:53 68.7 °F /  20.4 °C 44.1 °F /  6.7 °C 29.74in /  1007hPa Calm   5.0mph /  8km/h 41% 0.00in /  0mm 0.0 W/m2
02:59 68.9 °F /  20.5 °C 44.2 °F /  6.8 °C 29.74in /  1007hPa SE 0.9mph /  1.4km/h 5.0mph /  8km/h 41% 0.00in /  0mm 0.0 W/m2
03:04 69.1 °F /  20.6 °C 44.4 °F /  6.9 °C 29.74in /  1007hPa Calm   8.0mph /  12.9km/h 41% 0.00in /  0mm 0.0 W/m2
03:10 69.1 °F /  20.6 °C 44.4 °F /  6.9 °C 29.74in /  1007hPa SE 0.9mph /  1.4km/h 5.0mph /  8km/h 41% 0.00in /  0mm 0.0 W/m2
03:15 69.1 °F /  20.6 °C 43.7 °F /  6.5 °C 29.74in /  1007hPa ESE 0.9mph /  1.4km/h 6.0mph /  9.7km/h 40% 0.00in /  0mm 0.0 W/m2
03:20 69.3 °F /  20.7 °C 43.9 °F /  6.6 °C 29.74in /  1007hPa SE 2.0mph /  3.2km/h 6.0mph /  9.7km/h 40% 0.00in /  0mm 0.0 W/m2
03:25 69.3 °F /  20.7 °C 43.9 °F /  6.6 °C 29.74in /  1007hPa SE 2.9mph /  4.7km/h 6.0mph /  9.7km/h 40% 0.00in /  0mm 0.0 W/m2
03:30 69.4 °F /  20.8 °C 44.1 °F /  6.7 °C 29.74in /  1007hPa Calm   5.0mph /  8km/h 40% 0.00in /  0mm 0.0 W/m2
03:35 69.3 °F /  20.7 °C 43.9 °F /  6.6 °C 29.74in /  1007hPa Calm   2.0mph /  3.2km/h 40% 0.00in /  0mm 0.0 W/m2
03:40 69.3 °F /  20.7 °C 43.9 °F /  6.6 °C 29.74in /  1007hPa Calm   1.0mph /  1.6km/h 40% 0.00in /  0mm 0.0 W/m2
03:45 69.3 °F /  20.7 °C 43.9 °F /  6.6 °C 29.74in /  1007hPa Calm   1.0mph /  1.6km/h 40% 0.00in /  0mm 0.0 W/m2
03:50 69.1 °F /  20.6 °C 43.7 °F /  6.5 °C 29.74in /  1007hPa Calm     40% 0.00in /  0mm 0.0 W/m2
03:56 68.7 °F /  20.4 °C 45.9 °F /  7.7 °C 29.74in /  1007hPa Calm   1.0mph /  1.6km/h 44% 0.00in /  0mm 0.0 W/m2
04:01 68.4 °F /  20.2 °C 46.8 °F /  8.2 °C 29.74in /  1007hPa NNW 2.0mph /  3.2km/h 3.0mph /  4.8km/h 46% 0.00in /  0mm 0.0 W/m2
04:06 67.5 °F /  19.7 °C 46.6 °F /  8.1 °C 29.75in /  1007.3hPa NNW 0.9mph /  1.4km/h 2.0mph /  3.2km/h 47% 0.00in /  0mm 0.0 W/m2
04:11 66.9 °F /  19.4 °C 47.1 °F /  8.4 °C 29.75in /  1007.3hPa Calm     49% 0.00in /  0mm 0.0 W/m2
04:16 66.6 °F /  19.2 °C 47.3 °F /  8.5 °C 29.75in /  1007.3hPa Calm     50% 0.00in /  0mm 0.0 W/m2
04:21 66.0 °F /  18.9 °C 46.8 °F /  8.2 °C 29.74in /  1007hPa Calm     50% 0.00in /  0mm 0.0 W/m2
04:26 65.5 °F /  18.6 °C 45.9 °F /  7.7 °C 29.74in /  1007hPa Calm     49% 0.00in /  0mm 0.0 W/m2
04:31 65.1 °F /  18.4 °C 46.6 °F /  8.1 °C 29.74in /  1007hPa Calm   2.0mph /  3.2km/h 51% 0.00in /  0mm 0.0 W/m2
04:36 64.8 °F /  18.2 °C 46.8 °F /  8.2 °C 29.75in /  1007.3hPa NW 0.9mph /  1.4km/h 1.0mph /  1.6km/h 52% 0.00in /  0mm 0.0 W/m2
04:42 64.6 °F /  18.1 °C 46.6 °F /  8.1 °C 29.75in /  1007.3hPa Calm     52% 0.00in /  0mm 0.0 W/m2
04:47 64.2 °F /  17.9 °C 46.8 °F /  8.2 °C 29.75in /  1007.3hPa Calm     53% 0.00in /  0mm 0.0 W/m2
04:52 63.9 °F /  17.7 °C 46.9 °F /  8.3 °C 29.75in /  1007.3hPa Calm   2.0mph /  3.2km/h 54% 0.00in /  0mm 0.0 W/m2
04:57 63.7 °F /  17.6 °C 46.8 °F /  8.2 °C 29.75in /  1007.3hPa Calm     54% 0.00in /  0mm 0.0 W/m2
05:02 63.3 °F /  17.4 °C 46.9 °F /  8.3 °C 29.74in /  1007hPa Calm     55% 0.00in /  0mm 0.0 W/m2
05:07 63.0 °F /  17.2 °C 46.9 °F /  8.3 °C 29.74in /  1007hPa Calm   2.0mph /  3.2km/h 56% 0.00in /  0mm 0.0 W/m2
05:12 62.8 °F /  17.1 °C 47.3 °F /  8.5 °C 29.74in /  1007hPa Calm   1.0mph /  1.6km/h 57% 0.00in /  0mm 0.0 W/m2
05:17 62.4 °F /  16.9 °C 46.9 °F /  8.3 °C 29.74in /  1007hPa Calm   2.0mph /  3.2km/h 57% 0.00in /  0mm 0.0 W/m2
05:22 62.1 °F /  16.7 °C 47.1 °F /  8.4 °C 29.74in /  1007hPa Calm   1.0mph /  1.6km/h 58% 0.00in /  0mm 0.0 W/m2
05:28 61.9 °F /  16.6 °C 47.5 °F /  8.6 °C 29.74in /  1007hPa Calm   1.0mph /  1.6km/h 59% 0.00in /  0mm 0.0 W/m2
05:33 61.7 °F /  16.5 °C 46.8 °F /  8.2 °C 29.74in /  1007hPa Calm   2.0mph /  3.2km/h 58% 0.00in /  0mm 0.0 W/m2
05:38 61.5 °F /  16.4 °C 46.6 °F /  8.1 °C 29.75in /  1007.3hPa Calm   2.0mph /  3.2km/h 58% 0.00in /  0mm 0.0 W/m2
05:43 61.5 °F /  16.4 °C 47.1 °F /  8.4 °C 29.74in /  1007hPa Calm   2.0mph /  3.2km/h 59% 0.00in /  0mm 0.0 W/m2
05:48 61.3 °F /  16.3 °C 47.3 °F /  8.5 °C 29.74in /  1007hPa Calm   1.0mph /  1.6km/h 60% 0.00in /  0mm 0.0 W/m2
05:53 61.2 °F /  16.2 °C 47.7 °F /  8.7 °C 29.75in /  1007.3hPa Calm   1.0mph /  1.6km/h 61% 0.00in /  0mm 0.0 W/m2
05:58 61.0 °F /  16.1 °C 47.5 °F /  8.6 °C 29.74in /  1007hPa Calm   1.0mph /  1.6km/h 61% 0.00in /  0mm 0.0 W/m2
06:03 60.8 °F /  16 °C 47.7 °F /  8.7 °C 29.75in /  1007.3hPa NNW 0.9mph /  1.4km/h 1.0mph /  1.6km/h 62% 0.00in /  0mm 0.0 W/m2
06:08 60.6 °F /  15.9 °C 47.5 °F /  8.6 °C 29.75in /  1007.3hPa Calm   1.0mph /  1.6km/h 62% 0.00in /  0mm 0.0 W/m2
06:14 60.4 °F /  15.8 °C 47.3 °F /  8.5 °C 29.75in /  1007.3hPa Calm     62% 0.00in /  0mm 0.0 W/m2
06:19 60.3 °F /  15.7 °C 47.1 °F /  8.4 °C 29.75in /  1007.3hPa Calm   1.0mph /  1.6km/h 62% 0.00in /  0mm 0.0 W/m2
06:24 60.1 °F /  15.6 °C 46.9 °F /  8.3 °C 29.75in /  1007.3hPa Calm     62% 0.00in /  0mm 0.0 W/m2
06:29 60.1 °F /  15.6 °C 47.5 °F /  8.6 °C 29.75in /  1007.3hPa Calm   1.0mph /  1.6km/h 63% 0.00in /  0mm 0.0 W/m2
06:34 59.7 °F /  15.4 °C 47.1 °F /  8.4 °C 29.75in /  1007.3hPa Calm     63% 0.00in /  0mm 0.0 W/m2
06:39 59.5 °F /  15.3 °C 47.3 °F /  8.5 °C 29.75in /  1007.3hPa Calm     64% 0.00in /  0mm 0.0 W/m2
06:44 59.4 °F /  15.2 °C 47.1 °F /  8.4 °C 29.75in /  1007.3hPa NNW 0.9mph /  1.4km/h 1.0mph /  1.6km/h 64% 0.00in /  0mm 0.0 W/m2
06:49 59.2 °F /  15.1 °C 46.9 °F /  8.3 °C 29.75in /  1007.3hPa Calm   2.0mph /  3.2km/h 64% 0.00in /  0mm 0.0 W/m2
06:55 59.0 °F /  15 °C 46.8 °F /  8.2 °C 29.75in /  1007.3hPa Calm   2.0mph /  3.2km/h 64% 0.00in /  0mm 5.0 W/m2
07:00 58.8 °F /  14.9 °C 46.6 °F /  8.1 °C 29.75in /  1007.3hPa Calm   2.0mph /  3.2km/h 64% 0.00in /  0mm 9.0 W/m2
07:05 58.8 °F /  14.9 °C 47.1 °F /  8.4 °C 29.75in /  1007.3hPa Calm   3.0mph /  4.8km/h 65% 0.00in /  0mm 11.0 W/m2
07:11 58.8 °F /  14.9 °C 47.5 °F /  8.6 °C 29.75in /  1007.3hPa Calm   2.0mph /  3.2km/h 66% 0.00in /  0mm 14.0 W/m2
07:16 58.8 °F /  14.9 °C 47.1 °F /  8.4 °C 29.75in /  1007.3hPa ENE 0.9mph /  1.4km/h 2.0mph /  3.2km/h 65% 0.00in /  0mm 16.0 W/m2
07:21 58.8 °F /  14.9 °C 46.6 °F /  8.1 °C 29.75in /  1007.3hPa Calm   3.0mph /  4.8km/h 64% 0.00in /  0mm 16.0 W/m2
07:26 59.0 °F /  15 °C 47.3 °F /  8.5 °C 29.75in /  1007.3hPa ENE 0.9mph /  1.4km/h 3.0mph /  4.8km/h 65% 0.00in /  0mm 18.0 W/m2
07:31 59.2 °F /  15.1 °C 46.6 °F /  8.1 °C 29.75in /  1007.3hPa ENE 0.9mph /  1.4km/h 1.0mph /  1.6km/h 63% 0.00in /  0mm 19.0 W/m2
07:37 59.5 °F /  15.3 °C 47.3 °F /  8.5 °C 29.75in /  1007.3hPa Calm   1.0mph /  1.6km/h 64% 0.00in /  0mm 19.0 W/m2
07:42 59.7 °F /  15.4 °C 47.1 °F /  8.4 °C 29.76in /  1007.7hPa Calm     63% 0.00in /  0mm 21.0 W/m2
07:47 60.3 °F /  15.7 °C 47.7 °F /  8.7 °C 29.76in /  1007.7hPa ENE 0.9mph /  1.4km/h 2.0mph /  3.2km/h 63% 0.00in /  0mm 23.0 W/m2
07:52 61.0 °F /  16.1 °C 47.8 °F /  8.8 °C 29.76in /  1007.7hPa Calm   2.0mph /  3.2km/h 62% 0.00in /  0mm 23.0 W/m2
07:56 61.2 °F /  16.2 °C 47.7 °F /  8.7 °C 29.76in /  1007.7hPa East 2.0mph /  3.2km/h 3.0mph /  4.8km/h 61% 0.00in /  0mm 25.0 W/m2
08:01 61.7 °F /  16.5 °C 47.7 °F /  8.7 °C 29.76in /  1007.7hPa Calm   1.0mph /  1.6km/h 60% 0.00in /  0mm 26.0 W/m2
08:06 62.2 °F /  16.8 °C 48.6 °F /  9.2 °C 29.77in /  1008hPa Calm   1.0mph /  1.6km/h 61% 0.00in /  0mm 35.0 W/m2
08:11 62.8 °F /  17.1 °C 47.8 °F /  8.8 °C 29.77in /  1008hPa Calm     58% 0.00in /  0mm 30.0 W/m2
08:17 63.1 °F /  17.3 °C 47.7 °F /  8.7 °C 29.76in /  1007.7hPa Calm     57% 0.00in /  0mm 30.0 W/m2
08:22 63.7 °F /  17.6 °C 46.8 °F /  8.2 °C 29.77in /  1008hPa Calm     54% 0.00in /  0mm 28.0 W/m2
08:27 64.4 °F /  18 °C 46.4 °F /  8 °C 29.77in /  1008hPa Calm     52% 0.00in /  0mm 30.0 W/m2
08:32 65.3 °F /  18.5 °C 45.7 °F /  7.6 °C 29.77in /  1008hPa Calm   2.0mph /  3.2km/h 49% 0.00in /  0mm 46.0 W/m2
08:37 66.6 °F /  19.2 °C 45.7 °F /  7.6 °C 29.77in /  1008hPa ESE 4.0mph /  6.4km/h 4.0mph /  6.4km/h 47% 0.00in /  0mm 32.0 W/m2
08:42 67.6 °F /  19.8 °C 45.0 °F /  7.2 °C 29.77in /  1008hPa Calm   1.0mph /  1.6km/h 44% 0.00in /  0mm 35.0 W/m2
08:47 68.5 °F /  20.3 °C 44.6 °F /  7 °C 29.77in /  1008hPa Calm   2.0mph /  3.2km/h 42% 0.00in /  0mm 35.0 W/m2
08:52 69.3 °F /  20.7 °C 43.9 °F /  6.6 °C 29.77in /  1008hPa Calm   4.0mph /  6.4km/h 40% 0.00in /  0mm 44.0 W/m2
08:57 70.2 °F /  21.2 °C 44.8 °F /  7.1 °C 29.77in /  1008hPa Calm   2.0mph /  3.2km/h 40% 0.00in /  0mm 487.0 W/m2
09:03 70.9 °F /  21.6 °C 44.1 °F /  6.7 °C 29.77in /  1008hPa Calm   1.0mph /  1.6km/h 38% 0.00in /  0mm 513.0 W/m2
09:09 71.6 °F /  22 °C 44.6 °F /  7 °C 29.77in /  1008hPa Calm   4.0mph /  6.4km/h 38% 0.00in /  0mm 534.0 W/m2
09:14 72.3 °F /  22.4 °C 44.6 °F /  7 °C 29.77in /  1008hPa SW 0.9mph /  1.4km/h 3.0mph /  4.8km/h 37% 0.00in /  0mm 555.0 W/m2
09:19 73.0 °F /  22.8 °C 44.4 °F /  6.9 °C 29.77in /  1008hPa Calm   5.0mph /  8km/h 36% 0.00in /  0mm 573.0 W/m2
09:24 73.8 °F /  23.2 °C 45.1 °F /  7.3 °C 29.77in /  1008hPa Calm   3.0mph /  4.8km/h 36% 0.00in /  0mm 591.0 W/m2
09:29 74.3 °F /  23.5 °C 46.4 °F /  8 °C 29.76in /  1007.7hPa SSW 0.9mph /  1.4km/h 2.0mph /  3.2km/h 37% 0.00in /  0mm 612.0 W/m2
09:35 75.2 °F /  24 °C 46.4 °F /  8 °C 29.76in /  1007.7hPa Calm   3.0mph /  4.8km/h 36% 0.00in /  0mm 633.0 W/m2
09:40 75.9 °F /  24.4 °C 47.1 °F /  8.4 °C 29.76in /  1007.7hPa Calm   3.0mph /  4.8km/h 36% 0.00in /  0mm 650.0 W/m2
09:45 76.5 °F /  24.7 °C 46.0 °F /  7.8 °C 29.77in /  1008hPa Calm   1.0mph /  1.6km/h 34% 0.00in /  0mm 666.0 W/m2
09:50 77.2 °F /  25.1 °C 48.2 °F /  9 °C 29.76in /  1007.7hPa NW 0.9mph /  1.4km/h 1.0mph /  1.6km/h 36% 0.00in /  0mm 684.0 W/m2
09:57 78.3 °F /  25.7 °C 47.7 °F /  8.7 °C 29.77in /  1008hPa Calm   1.0mph /  1.6km/h 34% 0.00in /  0mm 703.0 W/m2
10:02 78.4 °F /  25.8 °C 46.9 °F /  8.3 °C 29.76in /  1007.7hPa Calm   3.0mph /  4.8km/h 33% 0.00in /  0mm 722.0 W/m2
10:07 78.3 °F /  25.7 °C 48.4 °F /  9.1 °C 29.76in /  1007.7hPa Calm   3.0mph /  4.8km/h 35% 0.00in /  0mm 740.0 W/m2
10:12 78.6 °F /  25.9 °C 50.2 °F /  10.1 °C 29.76in /  1007.7hPa Calm   8.0mph /  12.9km/h 37% 0.00in /  0mm 756.0 W/m2
10:19 79.5 °F /  26.4 °C 50.2 °F /  10.1 °C 29.76in /  1007.7hPa SE 4.0mph /  6.4km/h 9.0mph /  14.5km/h 36% 0.00in /  0mm 775.0 W/m2
10:24 79.5 °F /  26.4 °C 50.2 °F /  10.1 °C 29.76in /  1007.7hPa SE 4.0mph /  6.4km/h 9.0mph /  14.5km/h 36% 0.00in /  0mm 775.0 W/m2
10:30 81.5 °F /  27.5 °C 48.7 °F /  9.3 °C 29.76in /  1007.7hPa NNE 4.0mph /  6.4km/h 8.0mph /  12.9km/h 32% 0.00in /  0mm 810.0 W/m2
10:35 82.0 °F /  27.8 °C 49.3 °F /  9.6 °C 29.76in /  1007.7hPa Calm   7.0mph /  11.3km/h 32% 0.00in /  0mm 819.0 W/m2
10:40 82.6 °F /  28.1 °C 49.8 °F /  9.9 °C 29.76in /  1007.7hPa Calm   2.0mph /  3.2km/h 32% 0.00in /  0mm 837.0 W/m2
10:45 82.9 °F /  28.3 °C 50.0 °F /  10 °C 29.75in /  1007.3hPa ENE 4.9mph /  7.9km/h 5.0mph /  8km/h 32% 0.00in /  0mm 847.0 W/m2
10:48 83.1 °F /  28.4 °C 49.3 °F /  9.6 °C 29.75in /  1007.3hPa ESE 2.0mph /  3.2km/h 6.0mph /  9.7km/h 31% 0.00in /  0mm 854.0 W/m2
10:54 83.3 °F /  28.5 °C 49.5 °F /  9.7 °C 29.75in /  1007.3hPa SE 4.0mph /  6.4km/h 8.0mph /  12.9km/h 31% 0.00in /  0mm 870.0 W/m2
10:55 83.3 °F /  28.5 °C 49.5 °F /  9.7 °C 29.75in /  1007.3hPa SSE 2.0mph /  3.2km/h 7.0mph /  11.3km/h 31% 0.00in /  0mm 868.0 W/m2
10:59 83.5 °F /  28.6 °C 47.8 °F /  8.8 °C 29.75in /  1007.3hPa Calm   6.0mph /  9.7km/h 29% 0.00in /  0mm 888.0 W/m2
11:04 83.7 °F /  28.7 °C 47.1 °F /  8.4 °C 29.76in /  1007.7hPa ESE 6.0mph /  9.7km/h 11.0mph /  17.7km/h 28% 0.00in /  0mm 889.0 W/m2
11:09 83.8 °F /  28.8 °C 48.2 °F /  9 °C 29.75in /  1007.3hPa SSE 6.0mph /  9.7km/h 6.0mph /  9.7km/h 29% 0.00in /  0mm 907.0 W/m2
11:14 83.8 °F /  28.8 °C 48.2 °F /  9 °C 29.75in /  1007.3hPa SE 0.9mph /  1.4km/h 7.0mph /  11.3km/h 29% 0.00in /  0mm 911.0 W/m2
11:19 84.0 °F /  28.9 °C 47.5 °F /  8.6 °C 29.75in /  1007.3hPa SE 4.0mph /  6.4km/h 11.0mph /  17.7km/h 28% 0.00in /  0mm 918.0 W/m2
11:24 84.4 °F /  29.1 °C 47.7 °F /  8.7 °C 29.75in /  1007.3hPa SE 4.9mph /  7.9km/h 10.0mph /  16.1km/h 28% 0.00in /  0mm 930.0 W/m2
11:29 84.6 °F /  29.2 °C 47.8 °F /  8.8 °C 29.75in /  1007.3hPa SE 8.1mph /  13km/h 11.0mph /  17.7km/h 28% 0.00in /  0mm 962.0 W/m2
11:34 84.6 °F /  29.2 °C 46.9 °F /  8.3 °C 29.75in /  1007.3hPa East 4.0mph /  6.4km/h 6.0mph /  9.7km/h 27% 0.00in /  0mm 958.0 W/m2
11:39 84.7 °F /  29.3 °C 48.0 °F /  8.9 °C 29.75in /  1007.3hPa SE 6.9mph /  11.1km/h 9.0mph /  14.5km/h 28% 0.00in /  0mm 1009.0 W/m2
11:45 84.7 °F /  29.3 °C 48.0 °F /  8.9 °C 29.75in /  1007.3hPa SW 2.0mph /  3.2km/h 6.0mph /  9.7km/h 28% 0.00in /  0mm 1027.0 W/m2
11:50 84.4 °F /  29.1 °C 46.8 °F /  8.2 °C 29.75in /  1007.3hPa ESE 4.9mph /  7.9km/h 7.0mph /  11.3km/h 27% 0.00in /  0mm 1058.0 W/m2
11:55 84.6 °F /  29.2 °C 47.8 °F /  8.8 °C 29.75in /  1007.3hPa East 4.9mph /  7.9km/h 10.0mph /  16.1km/h 28% 0.00in /  0mm 1058.0 W/m2
11:59 84.7 °F /  29.3 °C 48.0 °F /  8.9 °C 29.75in /  1007.3hPa SSW 0.9mph /  1.4km/h 11.0mph /  17.7km/h 28% 0.00in /  0mm 1030.0 W/m2
12:04 85.5 °F /  29.7 °C 47.7 °F /  8.7 °C 29.74in /  1007hPa SE 6.0mph /  9.7km/h 6.0mph /  9.7km/h 27% 0.00in /  0mm 230.0 W/m2
12:09 85.5 °F /  29.7 °C 47.7 °F /  8.7 °C 29.75in /  1007.3hPa East 2.0mph /  3.2km/h 9.0mph /  14.5km/h 27% 0.00in /  0mm 188.0 W/m2
12:14 85.5 °F /  29.7 °C 46.6 °F /  8.1 °C 29.74in /  1007hPa East 0.9mph /  1.4km/h 8.0mph /  12.9km/h 26% 0.00in /  0mm 1076.0 W/m2
12:19 85.8 °F /  29.9 °C 45.9 °F /  7.7 °C 29.74in /  1007hPa NE 4.0mph /  6.4km/h 9.0mph /  14.5km/h 25% 0.00in /  0mm 1114.0 W/m2
12:24 86.2 °F /  30.1 °C 46.2 °F /  7.9 °C 29.74in /  1007hPa SSE 0.9mph /  1.4km/h 8.0mph /  12.9km/h 25% 0.00in /  0mm 260.0 W/m2
12:30 86.2 °F /  30.1 °C 45.1 °F /  7.3 °C 29.73in /  1006.7hPa SSE 4.0mph /  6.4km/h 9.0mph /  14.5km/h 24% 0.00in /  0mm 1085.0 W/m2
12:35 86.5 °F /  30.3 °C 44.4 °F /  6.9 °C 29.73in /  1006.7hPa SSE 8.1mph /  13km/h 9.0mph /  14.5km/h 23% 0.00in /  0mm 1079.0 W/m2
12:40 87.1 °F /  30.6 °C 43.7 °F /  6.5 °C 29.73in /  1006.7hPa Calm   9.0mph /  14.5km/h 22% 0.00in /  0mm 1111.0 W/m2
12:45 86.9 °F /  30.5 °C 45.7 °F /  7.6 °C 29.73in /  1006.7hPa SE 6.9mph /  11.1km/h 9.0mph /  14.5km/h 24% 0.00in /  0mm 1104.0 W/m2
12:51 87.1 °F /  30.6 °C 44.8 °F /  7.1 °C 29.73in /  1006.7hPa SE 4.9mph /  7.9km/h 15.0mph /  24.1km/h 23% 0.00in /  0mm 1139.0 W/m2
12:56 86.9 °F /  30.5 °C 43.5 °F /  6.4 °C 29.73in /  1006.7hPa SSE 8.1mph /  13km/h 9.0mph /  14.5km/h 22% 0.00in /  0mm 236.0 W/m2
13:01 86.7 °F /  30.4 °C 44.4 °F /  6.9 °C 29.72in /  1006.3hPa South 10.1mph /  16.3km/h 10.1mph /  16.3km/h 23% 0.00in /  0mm 1092.0 W/m2
13:06 87.3 °F /  30.7 °C 45.0 °F /  7.2 °C 29.72in /  1006.3hPa SE 0.9mph /  1.4km/h 8.0mph /  12.9km/h 23% 0.00in /  0mm 1055.0 W/m2
13:11 87.6 °F /  30.9 °C 45.3 °F /  7.4 °C 29.72in /  1006.3hPa SSE 4.0mph /  6.4km/h 5.0mph /  8km/h 23% 0.00in /  0mm 1085.0 W/m2
13:17 87.4 °F /  30.8 °C 43.9 °F /  6.6 °C 29.72in /  1006.3hPa SE 4.9mph /  7.9km/h 10.0mph /  16.1km/h 22% 0.00in /  0mm 308.0 W/m2
13:22 87.1 °F /  30.6 °C 42.4 °F /  5.8 °C 29.71in /  1006hPa Calm   8.0mph /  12.9km/h 21% 0.00in /  0mm 1109.0 W/m2
13:27 87.4 °F /  30.8 °C 43.9 °F /  6.6 °C 29.71in /  1006hPa SW 2.0mph /  3.2km/h 10.0mph /  16.1km/h 22% 0.00in /  0mm 1090.0 W/m2
13:32 87.6 °F /  30.9 °C 42.8 °F /  6 °C 29.71in /  1006hPa ESE 6.0mph /  9.7km/h 11.0mph /  17.7km/h 21% 0.00in /  0mm 1072.0 W/m2
13:37 88.0 °F /  31.1 °C 43.2 °F /  6.2 °C 29.70in /  1005.6hPa South 2.0mph /  3.2km/h 7.0mph /  11.3km/h 21% 0.00in /  0mm 1016.0 W/m2
13:42 88.2 °F /  31.2 °C 44.6 °F /  7 °C 29.70in /  1005.6hPa ESE 6.0mph /  9.7km/h 9.0mph /  14.5km/h 22% 0.00in /  0mm 1095.0 W/m2
13:47 88.9 °F /  31.6 °C 43.9 °F /  6.6 °C 29.70in /  1005.6hPa SW 0.9mph /  1.4km/h 6.0mph /  9.7km/h 21% 0.00in /  0mm 155.0 W/m2
13:52 88.3 °F /  31.3 °C 42.3 °F /  5.7 °C 29.70in /  1005.6hPa SE 0.9mph /  1.4km/h 10.0mph /  16.1km/h 20% 0.00in /  0mm 149.0 W/m2
13:57 87.6 °F /  30.9 °C 42.8 °F /  6 °C 29.70in /  1005.6hPa SE 6.0mph /  9.7km/h 8.0mph /  12.9km/h 21% 0.00in /  0mm 148.0 W/m2
14:03 87.6 °F /  30.9 °C 42.8 °F /  6 °C 29.69in /  1005.3hPa ENE 2.0mph /  3.2km/h 4.0mph /  6.4km/h 21% 0.00in /  0mm 1069.0 W/m2
14:08 88.2 °F /  31.2 °C 43.3 °F /  6.3 °C 29.69in /  1005.3hPa ESE 4.0mph /  6.4km/h 9.0mph /  14.5km/h 21% 0.00in /  0mm 1051.0 W/m2
14:13 88.7 °F /  31.5 °C 43.7 °F /  6.5 °C 29.68in /  1005hPa SW 0.9mph /  1.4km/h 9.0mph /  14.5km/h 21% 0.00in /  0mm 1086.0 W/m2
14:18 89.1 °F /  31.7 °C 44.1 °F /  6.7 °C 29.68in /  1005hPa ENE 6.9mph /  11.1km/h 12.0mph /  19.3km/h 21% 0.00in /  0mm 466.0 W/m2
14:24 89.4 °F /  31.9 °C 44.4 °F /  6.9 °C 29.67in /  1004.6hPa East 2.9mph /  4.7km/h 12.0mph /  19.3km/h 21% 0.00in /  0mm 1049.0 W/m2
14:29 90.1 °F /  32.3 °C 45.0 °F /  7.2 °C 29.67in /  1004.6hPa SE 4.0mph /  6.4km/h 6.0mph /  9.7km/h 21% 0.00in /  0mm 1044.0 W/m2
14:34 90.5 °F /  32.5 °C 43.9 °F /  6.6 °C 29.67in /  1004.6hPa Calm   10.0mph /  16.1km/h 20% 0.00in /  0mm 1060.0 W/m2
14:39 91.0 °F /  32.8 °C 43.0 °F /  6.1 °C 29.67in /  1004.6hPa SE 8.1mph /  13km/h 10.0mph /  16.1km/h 19% 0.00in /  0mm 1072.0 W/m2
14:45 90.3 °F /  32.4 °C 42.4 °F /  5.8 °C 29.67in /  1004.6hPa ESE 2.9mph /  4.7km/h 11.0mph /  17.7km/h 19% 0.00in /  0mm 199.0 W/m2
14:50 89.2 °F /  31.8 °C 43.0 °F /  6.1 °C 29.66in /  1004.3hPa SE 8.1mph /  13km/h 9.0mph /  14.5km/h 20% 0.00in /  0mm 163.0 W/m2
14:55 88.3 °F /  31.3 °C 43.5 °F /  6.4 °C 29.66in /  1004.3hPa ESE 6.0mph /  9.7km/h 11.0mph /  17.7km/h 21% 0.00in /  0mm 141.0 W/m2
15:00 87.6 °F /  30.9 °C 42.8 °F /  6 °C 29.66in /  1004.3hPa SSE 6.0mph /  9.7km/h 9.0mph /  14.5km/h 21% 0.00in /  0mm 928.0 W/m2
15:05 88.0 °F /  31.1 °C 41.9 °F /  5.5 °C 29.65in /  1003.9hPa SE 2.9mph /  4.7km/h 6.0mph /  9.7km/h 20% 0.00in /  0mm 902.0 W/m2
15:10 88.2 °F /  31.2 °C 40.6 °F /  4.8 °C 29.65in /  1003.9hPa NW 2.9mph /  4.7km/h 4.0mph /  6.4km/h 19% 0.00in /  0mm 902.0 W/m2
15:15 88.9 °F /  31.6 °C 42.6 °F /  5.9 °C 29.64in /  1003.6hPa ENE 2.9mph /  4.7km/h 13.0mph /  20.9km/h 20% 0.00in /  0mm 891.0 W/m2
15:20 89.4 °F /  31.9 °C 40.3 °F /  4.6 °C 29.64in /  1003.6hPa SE 4.0mph /  6.4km/h 9.0mph /  14.5km/h 18% 0.00in /  0mm 123.0 W/m2
15:25 89.1 °F /  31.7 °C 40.1 °F /  4.5 °C 29.64in /  1003.6hPa SE 8.9mph /  14.3km/h 11.0mph /  17.7km/h 18% 0.00in /  0mm 135.0 W/m2
15:30 88.2 °F /  31.2 °C 40.6 °F /  4.8 °C 29.64in /  1003.6hPa SE 0.9mph /  1.4km/h 10.0mph /  16.1km/h 19% 0.00in /  0mm 125.0 W/m2
15:36 87.6 °F /  30.9 °C 40.3 °F /  4.6 °C 29.64in /  1003.6hPa SE 6.0mph /  9.7km/h 9.0mph /  14.5km/h 19% 0.00in /  0mm 178.0 W/m2
15:41 87.8 °F /  31 °C 41.7 °F /  5.4 °C 29.63in /  1003.3hPa SSW 0.9mph /  1.4km/h 4.0mph /  6.4km/h 20% 0.00in /  0mm 867.0 W/m2
15:46 88.5 °F /  31.4 °C 42.3 °F /  5.7 °C 29.63in /  1003.3hPa ESE 8.9mph /  14.3km/h 15.0mph /  24.1km/h 20% 0.00in /  0mm 856.0 W/m2
15:51 89.2 °F /  31.8 °C 41.5 °F /  5.3 °C 29.62in /  1002.9hPa ENE 4.0mph /  6.4km/h 8.0mph /  12.9km/h 19% 0.00in /  0mm 846.0 W/m2
15:56 89.2 °F /  31.8 °C 40.3 °F /  4.6 °C 29.63in /  1003.3hPa SE 2.9mph /  4.7km/h 12.0mph /  19.3km/h 18% 0.00in /  0mm 250.0 W/m2
16:01 89.2 °F /  31.8 °C 41.5 °F /  5.3 °C 29.62in /  1002.9hPa ESE 6.9mph /  11.1km/h 9.0mph /  14.5km/h 19% 0.00in /  0mm 490.0 W/m2
16:06 89.6 °F /  32 °C 41.9 °F /  5.5 °C 29.62in /  1002.9hPa SE 8.9mph /  14.3km/h 9.0mph /  14.5km/h 19% 0.00in /  0mm 758.0 W/m2
16:11 90.3 °F /  32.4 °C 42.4 °F /  5.8 °C 29.62in /  1002.9hPa SSE 6.0mph /  9.7km/h 9.0mph /  14.5km/h 19% 0.00in /  0mm 763.0 W/m2
16:16 90.7 °F /  32.6 °C 41.4 °F /  5.2 °C 29.62in /  1002.9hPa SE 6.0mph /  9.7km/h 10.0mph /  16.1km/h 18% 0.00in /  0mm 772.0 W/m2
16:22 90.7 °F /  32.6 °C 42.8 °F /  6 °C 29.62in /  1002.9hPa ESE 8.9mph /  14.3km/h 12.0mph /  19.3km/h 19% 0.00in /  0mm 587.0 W/m2
16:27 90.0 °F /  32.2 °C 42.3 °F /  5.7 °C 29.61in /  1002.6hPa South 0.9mph /  1.4km/h 8.0mph /  12.9km/h 19% 0.00in /  0mm 698.0 W/m2
16:32 90.0 °F /  32.2 °C 42.3 °F /  5.7 °C 29.61in /  1002.6hPa South 2.0mph /  3.2km/h 13.0mph /  20.9km/h 19% 0.00in /  0mm 666.0 W/m2
16:37 90.3 °F /  32.4 °C 42.4 °F /  5.8 °C 29.61in /  1002.6hPa SE 4.9mph /  7.9km/h 9.0mph /  14.5km/h 19% 0.00in /  0mm 622.0 W/m2
16:42 90.9 °F /  32.7 °C 41.5 °F /  5.3 °C 29.61in /  1002.6hPa SE 4.0mph /  6.4km/h 10.0mph /  16.1km/h 18% 0.00in /  0mm 594.0 W/m2
16:47 90.7 °F /  32.6 °C 41.4 °F /  5.2 °C 29.61in /  1002.6hPa SE 8.1mph /  13km/h 12.0mph /  19.3km/h 18% 0.00in /  0mm 582.0 W/m2
16:52 90.5 °F /  32.5 °C 42.6 °F /  5.9 °C 29.61in /  1002.6hPa ESE 8.1mph /  13km/h 11.0mph /  17.7km/h 19% 0.00in /  0mm 568.0 W/m2
16:57 90.7 °F /  32.6 °C 41.4 °F /  5.2 °C 29.61in /  1002.6hPa South 4.0mph /  6.4km/h 7.0mph /  11.3km/h 18% 0.00in /  0mm 545.0 W/m2
17:02 91.0 °F /  32.8 °C 41.7 °F /  5.4 °C 29.61in /  1002.6hPa SE 2.0mph /  3.2km/h 9.0mph /  14.5km/h 18% 0.00in /  0mm 527.0 W/m2
17:07 90.9 °F /  32.7 °C 41.5 °F /  5.3 °C 29.60in /  1002.3hPa SSW 0.9mph /  1.4km/h 5.0mph /  8km/h 18% 0.00in /  0mm 503.0 W/m2
17:12 90.9 °F /  32.7 °C 41.5 °F /  5.3 °C 29.60in /  1002.3hPa SSE 2.0mph /  3.2km/h 6.0mph /  9.7km/h 18% 0.00in /  0mm 492.0 W/m2
17:18 90.9 °F /  32.7 °C 41.5 °F /  5.3 °C 29.60in /  1002.3hPa SE 8.1mph /  13km/h 12.0mph /  19.3km/h 18% 0.00in /  0mm 478.0 W/m2
17:23 90.7 °F /  32.6 °C 42.8 °F /  6 °C 29.60in /  1002.3hPa ESE 2.9mph /  4.7km/h 8.0mph /  12.9km/h 19% 0.00in /  0mm 446.0 W/m2
17:28 90.7 °F /  32.6 °C 41.4 °F /  5.2 °C 29.60in /  1002.3hPa ESE 4.0mph /  6.4km/h 11.0mph /  17.7km/h 18% 0.00in /  0mm 415.0 W/m2
17:33 90.7 °F /  32.6 °C 42.8 °F /  6 °C 29.60in /  1002.3hPa SSE 6.9mph /  11.1km/h 8.0mph /  12.9km/h 19% 0.00in /  0mm 397.0 W/m2
17:38 90.9 °F /  32.7 °C 43.0 °F /  6.1 °C 29.60in /  1002.3hPa SE 4.9mph /  7.9km/h 14.0mph /  22.5km/h 19% 0.00in /  0mm 357.0 W/m2
17:43 90.7 °F /  32.6 °C 42.8 °F /  6 °C 29.60in /  1002.3hPa SE 6.9mph /  11.1km/h 13.0mph /  20.9km/h 19% 0.00in /  0mm 339.0 W/m2
17:48 90.3 °F /  32.4 °C 42.4 °F /  5.8 °C 29.60in /  1002.3hPa South 2.0mph /  3.2km/h 7.0mph /  11.3km/h 19% 0.00in /  0mm 237.0 W/m2
17:54 90.1 °F /  32.3 °C 42.3 °F /  5.7 °C 29.60in /  1002.3hPa South 0.9mph /  1.4km/h 6.0mph /  9.7km/h 19% 0.00in /  0mm 62.0 W/m2
18:00 90.0 °F /  32.2 °C 42.3 °F /  5.7 °C 29.60in /  1002.3hPa SE 4.0mph /  6.4km/h 7.0mph /  11.3km/h 19% 0.00in /  0mm 274.0 W/m2
18:05 90.0 °F /  32.2 °C 42.3 °F /  5.7 °C 29.60in /  1002.3hPa Calm   7.0mph /  11.3km/h 19% 0.00in /  0mm 111.0 W/m2
18:10 89.8 °F /  32.1 °C 42.1 °F /  5.6 °C 29.60in /  1002.3hPa SSE 2.9mph /  4.7km/h 5.0mph /  8km/h 19% 0.00in /  0mm 60.0 W/m2
18:15 89.1 °F /  31.7 °C 42.8 °F /  6 °C 29.60in /  1002.3hPa South 4.0mph /  6.4km/h 7.0mph /  11.3km/h 20% 0.00in /  0mm 130.0 W/m2
18:20 88.5 °F /  31.4 °C 42.3 °F /  5.7 °C 29.60in /  1002.3hPa ESE 2.0mph /  3.2km/h 4.0mph /  6.4km/h 20% 0.00in /  0mm 42.0 W/m2
18:25 87.6 °F /  30.9 °C 41.5 °F /  5.3 °C 29.60in /  1002.3hPa Calm   4.0mph /  6.4km/h 20% 0.00in /  0mm 33.0 W/m2
18:30 87.1 °F /  30.6 °C 42.4 °F /  5.8 °C 29.60in /  1002.3hPa SSW 0.9mph /  1.4km/h 6.0mph /  9.7km/h 21% 0.00in /  0mm 37.0 W/m2
18:35 86.4 °F /  30.2 °C 41.9 °F /  5.5 °C 29.61in /  1002.6hPa SSW 0.9mph /  1.4km/h 2.0mph /  3.2km/h 21% 0.00in /  0mm 44.0 W/m2
18:40 86.2 °F /  30.1 °C 44.1 °F /  6.7 °C 29.61in /  1002.6hPa WSW 0.9mph /  1.4km/h 9.0mph /  14.5km/h 23% 0.00in /  0mm 118.0 W/m2
18:45 86.2 °F /  30.1 °C 44.1 °F /  6.7 °C 29.61in /  1002.6hPa SW 8.9mph /  14.3km/h 13.0mph /  20.9km/h 23% 0.00in /  0mm 88.0 W/m2
18:50 85.8 °F /  29.9 °C 43.7 °F /  6.5 °C 29.61in /  1002.6hPa WSW 4.0mph /  6.4km/h 9.0mph /  14.5km/h 23% 0.00in /  0mm 62.0 W/m2
18:56 85.6 °F /  29.8 °C 43.5 °F /  6.4 °C 29.61in /  1002.6hPa South 2.0mph /  3.2km/h 7.0mph /  11.3km/h 23% 0.00in /  0mm 18.0 W/m2
19:01 85.3 °F /  29.6 °C 43.3 °F /  6.3 °C 29.61in /  1002.6hPa SSE 2.9mph /  4.7km/h 11.0mph /  17.7km/h 23% 0.00in /  0mm 16.0 W/m2
19:06 84.9 °F /  29.4 °C 43.0 °F /  6.1 °C 29.61in /  1002.6hPa Calm   8.0mph /  12.9km/h 23% 0.00in /  0mm 9.0 W/m2
19:11 84.6 °F /  29.2 °C 42.6 °F /  5.9 °C 29.61in /  1002.6hPa SSW 2.0mph /  3.2km/h 15.0mph /  24.1km/h 23% 0.00in /  0mm 5.0 W/m2
19:16 84.0 °F /  28.9 °C 43.3 °F /  6.3 °C 29.61in /  1002.6hPa SSE 4.9mph /  7.9km/h 6.0mph /  9.7km/h 24% 0.00in /  0mm 0.0 W/m2
19:21 83.7 °F /  28.7 °C 43.0 °F /  6.1 °C 29.61in /  1002.6hPa Calm   5.0mph /  8km/h 24% 0.00in /  0mm 0.0 W/m2
19:26 83.5 °F /  28.6 °C 43.0 °F /  6.1 °C 29.62in /  1002.9hPa ESE 4.0mph /  6.4km/h 11.0mph /  17.7km/h 24% 0.00in /  0mm 0.0 W/m2
19:31 83.1 °F /  28.4 °C 43.7 °F /  6.5 °C 29.62in /  1002.9hPa SE 2.9mph /  4.7km/h 6.0mph /  9.7km/h 25% 0.00in /  0mm 0.0 W/m2
19:36 82.9 °F /  28.3 °C 43.5 °F /  6.4 °C 29.62in /  1002.9hPa SE 2.9mph /  4.7km/h 5.0mph /  8km/h 25% 0.00in /  0mm 0.0 W/m2
19:42 82.8 °F /  28.2 °C 43.3 °F /  6.3 °C 29.62in /  1002.9hPa ESE 4.0mph /  6.4km/h 10.0mph /  16.1km/h 25% 0.00in /  0mm 0.0 W/m2
19:47 82.6 °F /  28.1 °C 43.2 °F /  6.2 °C 29.62in /  1002.9hPa SE 4.9mph /  7.9km/h 9.0mph /  14.5km/h 25% 0.00in /  0mm 0.0 W/m2
19:52 82.2 °F /  27.9 °C 43.0 °F /  6.1 °C 29.62in /  1002.9hPa SSE 4.0mph /  6.4km/h 5.0mph /  8km/h 25% 0.00in /  0mm 0.0 W/m2
19:57 82.0 °F /  27.8 °C 42.8 °F /  6 °C 29.62in /  1002.9hPa SSE 2.9mph /  4.7km/h 3.0mph /  4.8km/h 25% 0.00in /  0mm 0.0 W/m2
20:02 81.9 °F /  27.7 °C 43.7 °F /  6.5 °C 29.62in /  1002.9hPa SSE 0.9mph /  1.4km/h 3.0mph /  4.8km/h 26% 0.00in /  0mm 0.0 W/m2
20:07 81.7 °F /  27.6 °C 43.5 °F /  6.4 °C 29.63in /  1003.3hPa SSW 2.9mph /  4.7km/h 4.0mph /  6.4km/h 26% 0.00in /  0mm 0.0 W/m2
20:12 81.3 °F /  27.4 °C 44.1 °F /  6.7 °C 29.63in /  1003.3hPa Calm   3.0mph /  4.8km/h 27% 0.00in /  0mm 0.0 W/m2
20:17 81.0 °F /  27.2 °C 45.7 °F /  7.6 °C 29.63in /  1003.3hPa SSW 4.0mph /  6.4km/h 5.0mph /  8km/h 29% 0.00in /  0mm 0.0 W/m2
20:22 80.2 °F /  26.8 °C 46.9 °F /  8.3 °C 29.64in /  1003.6hPa SW 0.9mph /  1.4km/h 9.0mph /  14.5km/h 31% 0.00in /  0mm 0.0 W/m2
20:28 79.5 °F /  26.4 °C 47.1 °F /  8.4 °C 29.64in /  1003.6hPa ENE 0.9mph /  1.4km/h 4.0mph /  6.4km/h 32% 0.00in /  0mm 0.0 W/m2
20:33 79.0 °F /  26.1 °C 47.5 °F /  8.6 °C 29.65in /  1003.9hPa East 6.0mph /  9.7km/h 8.0mph /  12.9km/h 33% 0.00in /  0mm 0.0 W/m2
20:38 78.6 °F /  25.9 °C 50.9 °F /  10.5 °C 29.66in /  1004.3hPa NE 2.0mph /  3.2km/h 7.0mph /  11.3km/h 38% 0.00in /  0mm 0.0 W/m2
20:43 78.3 °F /  25.7 °C 53.2 °F /  11.8 °C 29.67in /  1004.6hPa ENE 4.0mph /  6.4km/h 13.0mph /  20.9km/h 42% 0.00in /  0mm 0.0 W/m2
20:48 77.9 °F /  25.5 °C 54.3 °F /  12.4 °C 29.67in /  1004.6hPa ENE 10.1mph /  16.3km/h 14.0mph /  22.5km/h 44% 0.00in /  0mm 0.0 W/m2
20:54 77.4 °F /  25.2 °C 54.3 °F /  12.4 °C 29.67in /  1004.6hPa Calm   9.0mph /  14.5km/h 45% 0.00in /  0mm 0.0 W/m2
20:59 77.2 °F /  25.1 °C 54.1 °F /  12.3 °C 29.67in /  1004.6hPa ENE 0.9mph /  1.4km/h 8.0mph /  12.9km/h 45% 0.00in /  0mm 0.0 W/m2
21:04 76.8 °F /  24.9 °C 53.8 °F /  12.1 °C 29.67in /  1004.6hPa East 4.0mph /  6.4km/h 8.0mph /  12.9km/h 45% 0.00in /  0mm 0.0 W/m2
21:09 76.6 °F /  24.8 °C 53.8 °F /  12.1 °C 29.67in /  1004.6hPa East 0.9mph /  1.4km/h 9.0mph /  14.5km/h 45% 0.00in /  0mm 0.0 W/m2
21:14 76.6 °F /  24.8 °C 53.8 °F /  12.1 °C 29.67in /  1004.6hPa East 2.9mph /  4.7km/h 10.0mph /  16.1km/h 45% 0.00in /  0mm 0.0 W/m2
21:20 76.5 °F /  24.7 °C 53.6 °F /  12 °C 29.67in /  1004.6hPa ESE 2.9mph /  4.7km/h 8.0mph /  12.9km/h 45% 0.00in /  0mm 0.0 W/m2
21:26 76.3 °F /  24.6 °C 53.4 °F /  11.9 °C 29.68in /  1005hPa ESE 2.0mph /  3.2km/h 5.0mph /  8km/h 45% 0.00in /  0mm 0.0 W/m2
21:31 76.3 °F /  24.6 °C 54.0 °F /  12.2 °C 29.68in /  1005hPa ESE 0.9mph /  1.4km/h 5.0mph /  8km/h 46% 0.00in /  0mm 0.0 W/m2
21:36 76.1 °F /  24.5 °C 54.3 °F /  12.4 °C 29.68in /  1005hPa ENE 2.0mph /  3.2km/h 7.0mph /  11.3km/h 47% 0.00in /  0mm 0.0 W/m2
21:41 75.9 °F /  24.4 °C 56.5 °F /  13.6 °C 29.69in /  1005.3hPa ENE 2.0mph /  3.2km/h 8.0mph /  12.9km/h 51% 0.00in /  0mm 0.0 W/m2
21:46 75.6 °F /  24.2 °C 56.1 °F /  13.4 °C 29.70in /  1005.6hPa ESE 6.0mph /  9.7km/h 7.0mph /  11.3km/h 51% 0.00in /  0mm 0.0 W/m2
21:51 75.4 °F /  24.1 °C 55.9 °F /  13.3 °C 29.70in /  1005.6hPa Calm   6.0mph /  9.7km/h 51% 0.00in /  0mm 0.0 W/m2
21:56 74.8 °F /  23.8 °C 55.0 °F /  12.8 °C 29.70in /  1005.6hPa Calm   7.0mph /  11.3km/h 50% 0.00in /  0mm 0.0 W/m2
22:02 74.7 °F /  23.7 °C 54.3 °F /  12.4 °C 29.70in /  1005.6hPa Calm   1.0mph /  1.6km/h 49% 0.00in /  0mm 0.0 W/m2
22:07 74.7 °F /  23.7 °C 53.6 °F /  12 °C 29.69in /  1005.3hPa East 0.9mph /  1.4km/h 4.0mph /  6.4km/h 48% 0.00in /  0mm 0.0 W/m2
22:12 74.5 °F /  23.6 °C 52.3 °F /  11.3 °C 29.70in /  1005.6hPa SE 0.9mph /  1.4km/h 6.0mph /  9.7km/h 46% 0.00in /  0mm 0.0 W/m2
22:17 74.5 °F /  23.6 °C 54.7 °F /  12.6 °C 29.70in /  1005.6hPa NE 0.9mph /  1.4km/h 3.0mph /  4.8km/h 50% 0.00in /  0mm 0.0 W/m2
22:22 74.1 °F /  23.4 °C 54.9 °F /  12.7 °C 29.69in /  1005.3hPa Calm   3.0mph /  4.8km/h 51% 0.00in /  0mm 0.0 W/m2
22:26 74.1 °F /  23.4 °C 55.4 °F /  13 °C 29.70in /  1005.6hPa Calm   1.0mph /  1.6km/h 52% 0.00in /  0mm 0.0 W/m2
22:31 73.8 °F /  23.2 °C 55.0 °F /  12.8 °C 29.70in /  1005.6hPa ESE 2.9mph /  4.7km/h 6.0mph /  9.7km/h 52% 0.00in /  0mm 0.0 W/m2
22:36 73.6 °F /  23.1 °C 55.4 °F /  13 °C 29.70in /  1005.6hPa East 0.9mph /  1.4km/h 5.0mph /  8km/h 53% 0.00in /  0mm 0.0 W/m2
22:41 73.4 °F /  23 °C 55.8 °F /  13.2 °C 29.70in /  1005.6hPa ESE 2.0mph /  3.2km/h 4.0mph /  6.4km/h 54% 0.00in /  0mm 0.0 W/m2
22:46 73.0 °F /  22.8 °C 54.3 °F /  12.4 °C 29.70in /  1005.6hPa Calm   4.0mph /  6.4km/h 52% 0.00in /  0mm 0.0 W/m2
22:52 72.9 °F /  22.7 °C 53.6 °F /  12 °C 29.70in /  1005.6hPa ESE 2.0mph /  3.2km/h 5.0mph /  8km/h 51% 0.00in /  0mm 0.0 W/m2
22:57 72.9 °F /  22.7 °C 53.1 °F /  11.7 °C 29.70in /  1005.6hPa ESE 0.9mph /  1.4km/h 7.0mph /  11.3km/h 50% 0.00in /  0mm 0.0 W/m2
23:02 72.9 °F /  22.7 °C 51.4 °F /  10.8 °C 29.70in /  1005.6hPa ESE 0.9mph /  1.4km/h 3.0mph /  4.8km/h 47% 0.00in /  0mm 0.0 W/m2
23:07 72.9 °F /  22.7 °C 52.0 °F /  11.1 °C 29.71in /  1006hPa Calm   1.0mph /  1.6km/h 48% 0.00in /  0mm 0.0 W/m2
23:12 73.0 °F /  22.8 °C 53.2 °F /  11.8 °C 29.71in /  1006hPa ESE 2.9mph /  4.7km/h 5.0mph /  8km/h 50% 0.00in /  0mm 0.0 W/m2
23:18 72.9 °F /  22.7 °C 53.6 °F /  12 °C 29.71in /  1006hPa SE 4.9mph /  7.9km/h 8.0mph /  12.9km/h 51% 0.00in /  0mm 0.0 W/m2
23:23 72.9 °F /  22.7 °C 53.1 °F /  11.7 °C 29.71in /  1006hPa Calm   5.0mph /  8km/h 50% 0.00in /  0mm 0.0 W/m2
23:28 72.9 °F /  22.7 °C 54.1 °F /  12.3 °C 29.71in /  1006hPa SSE 0.9mph /  1.4km/h 6.0mph /  9.7km/h 52% 0.00in /  0mm 0.0 W/m2
23:34 72.7 °F /  22.6 °C 54.5 °F /  12.5 °C 29.71in /  1006hPa South 4.9mph /  7.9km/h 8.0mph /  12.9km/h 53% 0.00in /  0mm 0.0 W/m2
23:40 71.8 °F /  22.1 °C 53.8 °F /  12.1 °C 29.71in /  1006hPa SW 2.9mph /  4.7km/h 8.0mph /  12.9km/h 53% 0.00in /  0mm 0.0 W/m2
23:45 71.1 °F /  21.7 °C 53.6 °F /  12 °C 29.70in /  1005.6hPa Calm   3.0mph /  4.8km/h 54% 0.00in /  0mm 0.0 W/m2
23:51 70.5 °F /  21.4 °C 53.1 °F /  11.7 °C 29.70in /  1005.6hPa Calm   6.0mph /  9.7km/h 54% 0.00in /  0mm 0.0 W/m2
23:56 70.2 °F /  21.2 °C 52.7 °F /  11.5 °C 29.70in /  1005.6hPa Calm   2.0mph /  3.2km/h 54% 0.00in /  0mm 0.0 W/m2
Olympia, Windhoek, Namibia
Compliments of Weather Underground - 3.25 mb